createdAt,value
2019-03-08T00:00:34.708Z,7.05
2019-03-08T00:03:05.151Z,8.08
2019-03-08T00:05:35.551Z,6.90
2019-03-08T00:08:06.124Z,6.65
2019-03-08T00:10:37.665Z,6.35
2019-03-08T00:13:07.964Z,6.70
2019-03-08T00:15:38.696Z,7.55
2019-03-08T00:18:09.105Z,6.62
2019-03-08T00:20:39.551Z,7.62
2019-03-08T00:23:10.047Z,7.42
2019-03-08T00:25:40.640Z,5.35
2019-03-08T00:28:11.151Z,6.70
2019-03-08T00:30:42.876Z,6.85
2019-03-08T00:33:13.584Z,7.50
2019-03-08T00:35:43.870Z,6.95
2019-03-08T00:38:14.626Z,6.70
2019-03-08T00:40:45.600Z,7.70
2019-03-08T00:43:16.430Z,7.47
2019-03-08T00:45:47.178Z,7.17
2019-03-08T00:48:18.709Z,6.20
2019-03-08T00:50:49.180Z,6.25
2019-03-08T00:53:19.774Z,8.23
2019-03-08T00:55:50.794Z,6.75
2019-03-08T00:58:21.258Z,7.72
2019-03-08T01:00:51.555Z,6.37
2019-03-08T01:03:22.027Z,6.37
2019-03-08T01:05:52.436Z,7.17
2019-03-08T01:08:23.286Z,7.12
2019-03-08T01:10:54.529Z,6.28
2019-03-08T01:13:24.758Z,7.22
2019-03-08T01:15:55.124Z,7.78
2019-03-08T01:18:25.552Z,7.75
2019-03-08T01:20:56.187Z,7.92
2019-03-08T01:23:26.626Z,6.67
2019-03-08T01:25:57.477Z,8.00
2019-03-08T01:28:27.968Z,8.05
2019-03-08T01:30:59.096Z,8.68
2019-03-08T01:33:30.003Z,7.97
2019-03-08T01:36:10.169Z,7.40
2019-03-08T01:38:41.962Z,7.90
2019-03-08T01:41:13.018Z,7.45
2019-03-08T01:43:45.605Z,8.80
2019-03-08T01:46:16.095Z,8.43
2019-03-08T01:48:46.889Z,8.55
2019-03-08T01:51:17.491Z,8.13
2019-03-08T01:53:48.238Z,9.45
2019-03-08T01:56:42.987Z,8.70
2019-03-08T01:59:13.971Z,8.35
2019-03-08T02:01:44.087Z,7.80
2019-03-08T02:04:14.533Z,9.25
2019-03-08T02:06:45.108Z,8.50
2019-03-08T02:09:16.796Z,5.40
2019-03-08T02:11:47.224Z,6.92
2019-03-08T02:14:17.530Z,8.55
2019-03-08T02:16:48.838Z,9.28
2019-03-08T02:19:20.001Z,8.60
2019-03-08T02:21:50.804Z,8.28
2019-03-08T02:24:21.118Z,9.18
2019-03-08T02:26:51.911Z,9.03
2019-03-08T02:29:22.368Z,8.68
2019-03-08T02:31:53.644Z,9.65
2019-03-08T02:34:24.286Z,8.30
2019-03-08T02:36:56.162Z,9.00
2019-03-08T02:39:26.710Z,8.18
2019-03-08T02:41:57.464Z,9.03
2019-03-08T02:44:27.735Z,8.18
2019-03-08T02:46:59.492Z,9.75
2019-03-08T02:49:29.995Z,9.85
2019-03-08T02:52:00.203Z,9.00
2019-03-08T02:54:31.053Z,7.50
2019-03-08T02:57:02.199Z,8.08
2019-03-08T02:59:32.623Z,9.73
2019-03-08T03:02:04.884Z,9.55
2019-03-08T03:04:36.497Z,8.35
2019-03-08T03:07:11.908Z,10.20
2019-03-08T03:12:12.562Z,9.85
2019-03-08T03:14:43.408Z,9.85
2019-03-08T03:17:14.027Z,9.93
2019-03-08T03:19:44.958Z,10.20
2019-03-08T03:22:15.360Z,9.05
2019-03-08T03:24:45.957Z,9.88
2019-03-08T03:27:16.523Z,10.10
2019-03-08T03:29:46.862Z,10.08
2019-03-08T03:32:17.572Z,11.08
2019-03-08T03:34:48.181Z,10.65
2019-03-08T03:37:18.819Z,9.85
2019-03-08T03:39:49.406Z,10.63
2019-03-08T03:42:33.185Z,10.38
2019-03-08T03:48:14.885Z,9.73
2019-03-08T03:51:22.785Z,10.50
2019-03-08T03:54:08.675Z,10.38
2019-03-08T03:56:54.189Z,12.00
2019-03-08T03:59:29.498Z,11.20
2019-03-08T04:02:06.643Z,11.88
2019-03-08T04:04:41.700Z,12.28
2019-03-08T04:07:13.813Z,11.85
2019-03-08T04:09:47.330Z,11.83
2019-03-08T04:12:19.066Z,12.20
2019-03-08T04:14:58.067Z,13.68
2019-03-08T04:17:35.545Z,11.12
2019-03-08T04:20:12.516Z,12.55
2019-03-08T04:22:57.196Z,12.78
2019-03-08T04:25:40.254Z,13.00
2019-03-08T04:28:18.949Z,13.45
2019-03-08T04:31:00.058Z,13.43
2019-03-08T04:33:49.949Z,13.70
2019-03-08T04:36:30.258Z,9.78
2019-03-08T04:39:01.787Z,12.80
2019-03-08T04:41:31.956Z,12.75
2019-03-08T04:44:03.845Z,13.70
2019-03-08T04:46:34.462Z,12.47
2019-03-08T04:49:06.847Z,13.55
2019-03-08T04:51:37.917Z,14.07
2019-03-08T04:54:11.565Z,14.20
2019-03-08T04:56:42.121Z,11.18
2019-03-08T04:59:12.599Z,12.90
2019-03-08T05:01:42.657Z,12.93
2019-03-08T05:04:13.121Z,14.00
2019-03-08T05:06:43.562Z,13.45
2019-03-08T05:09:14.665Z,12.13
2019-03-08T05:11:45.185Z,14.63
2019-03-08T05:14:15.477Z,14.05
2019-03-08T05:16:48.547Z,13.72
2019-03-08T05:19:20.168Z,14.35
2019-03-08T05:21:50.916Z,14.13
2019-03-08T05:24:21.419Z,13.75
2019-03-08T05:26:51.593Z,14.28
2019-03-08T05:29:33.245Z,16.23
2019-03-08T05:32:06.241Z,13.62
2019-03-08T05:34:37.101Z,15.70
2019-03-08T05:37:08.309Z,15.03
2019-03-08T05:39:39.154Z,14.98
2019-03-08T05:42:09.554Z,14.95
2019-03-08T05:44:41.928Z,15.50
2019-03-08T05:47:12.511Z,15.32
2019-03-08T05:49:42.895Z,15.43
2019-03-08T05:52:13.231Z,14.00
2019-03-08T05:54:44.742Z,15.30
2019-03-08T05:57:15.223Z,15.13
2019-03-08T05:59:45.717Z,16.00
2019-03-08T06:02:19.418Z,16.02
2019-03-08T06:04:49.853Z,11.33
2019-03-08T06:07:20.580Z,14.95
2019-03-08T06:09:51.001Z,18.80
2019-03-08T06:12:21.122Z,16.05
2019-03-08T06:14:52.552Z,16.48
2019-03-08T06:17:23.061Z,18.00
2019-03-08T06:19:53.219Z,15.88
2019-03-08T06:22:23.606Z,14.28
2019-03-08T06:24:54.169Z,18.45
2019-03-08T06:27:26.065Z,14.78
2019-03-08T06:29:56.620Z,15.53
2019-03-08T06:32:31.960Z,18.62
2019-03-08T06:37:39.775Z,16.82
2019-03-08T06:40:31.982Z,16.02
2019-03-08T06:43:09.774Z,18.25
2019-03-08T06:45:40.705Z,19.60
2019-03-08T06:48:11.460Z,16.15
2019-03-08T06:50:49.564Z,17.48
2019-03-08T06:53:20.935Z,16.27
2019-03-08T06:55:51.825Z,16.40
2019-03-08T06:58:45.697Z,19.02
2019-03-08T07:01:21.472Z,16.97
2019-03-08T07:03:52.131Z,18.35
2019-03-08T07:06:22.941Z,19.73
2019-03-08T07:08:53.294Z,16.23
2019-03-08T07:11:25.161Z,17.40
2019-03-08T07:13:55.898Z,18.05
2019-03-08T07:16:38.498Z,18.65
2019-03-08T07:19:11.114Z,20.30
2019-03-08T07:25:06.820Z,15.15
2019-03-08T07:28:00.773Z,17.82
2019-03-08T07:30:57.653Z,16.20
2019-03-08T07:33:29.611Z,17.20
2019-03-08T07:36:16.030Z,17.40
2019-03-08T07:39:11.209Z,15.55
2019-03-08T07:44:49.997Z,14.78
2019-03-08T07:47:28.683Z,17.25
2019-03-08T07:50:18.145Z,18.65
2019-03-08T07:53:08.452Z,17.37
2019-03-08T07:55:53.688Z,19.70
2019-03-08T07:58:48.447Z,18.05
2019-03-08T08:01:23.989Z,17.35
2019-03-08T08:04:12.713Z,20.10
2019-03-08T08:07:19.947Z,17.37
2019-03-08T08:10:19.533Z,17.20
2019-03-08T08:13:07.638Z,18.92
2019-03-08T08:15:59.758Z,19.25
2019-03-08T08:18:55.375Z,19.25
2019-03-08T08:21:32.559Z,18.87
2019-03-08T08:24:15.867Z,17.82
2019-03-08T08:27:06.989Z,18.55
2019-03-08T08:29:56.506Z,18.37
2019-03-08T08:32:58.045Z,18.75
2019-03-08T08:35:50.789Z,17.60
2019-03-08T08:38:39.458Z,16.45
2019-03-08T08:41:20.327Z,18.42
2019-03-08T08:44:10.344Z,18.37
2019-03-08T08:47:00.333Z,18.98
2019-03-08T08:49:59.192Z,20.17
2019-03-08T08:52:57.733Z,19.57
2019-03-08T08:55:49.892Z,18.85
2019-03-08T08:58:48.372Z,18.25
2019-03-08T09:01:37.682Z,18.50
2019-03-08T09:04:27.580Z,19.82
2019-03-08T09:07:07.587Z,19.73
2019-03-08T09:09:49.616Z,17.48
2019-03-08T09:12:47.835Z,18.15
2019-03-08T09:15:27.669Z,17.50
2019-03-08T09:18:09.628Z,14.15
2019-03-08T09:21:11.609Z,18.15
2019-03-08T09:24:10.129Z,18.35
2019-03-08T09:27:02.808Z,18.65
2019-03-08T09:29:52.500Z,18.75
2019-03-08T09:32:29.719Z,16.05
2019-03-08T09:35:23.308Z,17.00
2019-03-08T09:38:13.197Z,16.97
2019-03-08T09:41:01.144Z,15.03
2019-03-08T09:43:49.227Z,17.30
2019-03-08T09:46:53.654Z,16.87
2019-03-08T09:49:43.033Z,18.55
2019-03-08T09:52:26.683Z,16.70
2019-03-08T09:55:25.857Z,17.42
2019-03-08T09:58:04.169Z,17.10
2019-03-08T10:01:02.750Z,15.08
2019-03-08T10:04:04.397Z,16.48
2019-03-08T10:07:00.735Z,16.67
2019-03-08T10:09:40.517Z,15.60
2019-03-08T10:12:38.226Z,14.85
2019-03-08T10:15:28.114Z,16.70
2019-03-08T10:18:32.240Z,14.85
2019-03-08T10:21:10.067Z,15.13
2019-03-08T10:23:59.253Z,16.40
2019-03-08T10:26:38.679Z,17.10
2019-03-08T10:29:29.062Z,15.18
2019-03-08T10:32:13.824Z,16.95
2019-03-08T10:34:59.467Z,17.48
2019-03-08T10:37:47.741Z,16.97
2019-03-08T10:40:40.461Z,17.42
2019-03-08T10:43:32.961Z,15.93
2019-03-08T10:46:21.541Z,16.87
2019-03-08T10:49:17.399Z,16.35
2019-03-08T10:51:55.926Z,14.95
2019-03-08T10:54:35.453Z,15.88
2019-03-08T10:57:37.079Z,17.67
2019-03-08T11:00:28.062Z,15.90
2019-03-08T11:03:18.482Z,16.48
2019-03-08T11:06:00.684Z,15.10
2019-03-08T11:08:50.570Z,16.42
2019-03-08T11:11:35.183Z,15.53
2019-03-08T11:17:12.983Z,16.42
2019-03-08T11:19:52.230Z,16.65
2019-03-08T11:22:45.681Z,16.10
2019-03-08T11:25:38.923Z,17.25
2019-03-08T11:28:25.944Z,17.07
2019-03-08T11:31:21.295Z,16.65
2019-03-08T11:34:22.289Z,16.40
2019-03-08T11:37:00.308Z,16.10
2019-03-08T11:39:55.489Z,16.57
2019-03-08T11:42:45.683Z,15.80
2019-03-08T11:45:51.196Z,16.52
2019-03-08T11:48:44.600Z,16.17
2019-03-08T11:51:33.171Z,16.55
2019-03-08T11:54:40.391Z,17.23
2019-03-08T11:57:24.176Z,16.30
2019-03-08T12:00:20.074Z,16.27
2019-03-08T12:03:25.145Z,16.97
2019-03-08T12:06:21.106Z,16.95
2019-03-08T12:09:16.995Z,18.00
2019-03-08T12:12:07.169Z,16.32
2019-03-08T12:14:52.861Z,15.90
2019-03-08T12:17:41.573Z,15.13
2019-03-08T12:20:19.160Z,17.00
2019-03-08T12:23:09.758Z,16.87
2019-03-08T12:26:08.397Z,18.60
2019-03-08T12:28:55.186Z,16.25
2019-03-08T12:31:51.759Z,17.37
2019-03-08T12:34:41.434Z,23.73
2019-03-08T12:37:36.728Z,17.67
2019-03-08T12:40:26.509Z,19.10
2019-03-08T12:43:20.284Z,19.77
2019-03-08T12:45:56.641Z,16.87
2019-03-08T12:48:55.428Z,17.25
2019-03-08T12:51:44.017Z,16.45
2019-03-08T12:54:38.817Z,17.10
2019-03-08T12:57:31.764Z,17.45
2019-03-08T13:00:21.841Z,18.85
2019-03-08T13:03:05.612Z,17.40
2019-03-08T13:05:48.222Z,18.93
2019-03-08T13:08:38.534Z,17.87
2019-03-08T13:11:09.820Z,18.87
2019-03-08T13:13:39.905Z,17.82
2019-03-08T13:16:10.576Z,19.35
2019-03-08T13:18:40.972Z,18.95
2019-03-08T13:21:12.092Z,16.67
2019-03-08T13:23:43.143Z,18.42
2019-03-08T13:26:14.050Z,18.77
2019-03-08T13:28:45.020Z,17.10
2019-03-08T13:31:25.010Z,17.87
2019-03-08T13:33:57.878Z,17.23
2019-03-08T13:36:36.956Z,15.65
2019-03-08T13:39:10.233Z,19.30
2019-03-08T13:41:41.405Z,20.37
2019-03-08T13:44:13.199Z,18.45
2019-03-08T13:46:44.413Z,19.37
2019-03-08T13:49:20.121Z,18.30
2019-03-08T13:51:50.737Z,18.48
2019-03-08T13:54:21.374Z,18.57
2019-03-08T13:56:56.807Z,18.37
2019-03-08T13:59:44.692Z,18.23
2019-03-08T14:02:16.235Z,17.60
2019-03-08T14:04:47.828Z,18.40
2019-03-08T14:07:18.476Z,19.45
2019-03-08T14:09:48.879Z,20.00
2019-03-08T14:12:19.714Z,18.20
2019-03-08T14:14:50.265Z,19.23
2019-03-08T14:17:22.618Z,18.55
2019-03-08T14:19:53.163Z,22.67
2019-03-08T14:22:24.481Z,19.85
2019-03-08T14:24:56.470Z,22.00
2019-03-08T14:27:28.937Z,20.57
2019-03-08T14:30:00.887Z,19.07
2019-03-08T14:32:34.594Z,19.70
2019-03-08T14:35:06.717Z,19.27
2019-03-08T14:37:37.406Z,19.17
2019-03-08T14:40:20.648Z,19.07
2019-03-08T14:42:57.764Z,18.55
2019-03-08T14:45:40.566Z,18.25
2019-03-08T14:48:11.922Z,17.85
2019-03-08T14:50:42.271Z,19.90
2019-03-08T14:53:13.185Z,19.75
2019-03-08T14:55:43.710Z,18.55
2019-03-08T14:58:13.725Z,19.70
2019-03-08T15:00:44.190Z,19.05
2019-03-08T15:03:14.420Z,20.02
2019-03-08T15:05:44.933Z,19.42
2019-03-08T15:08:17.841Z,19.87
2019-03-08T15:10:51.184Z,21.10
2019-03-08T15:13:23.470Z,19.87
2019-03-08T15:15:53.598Z,17.77
2019-03-08T15:18:26.019Z,18.75
2019-03-08T15:20:58.531Z,18.00
2019-03-08T15:23:27.869Z,18.55
2019-03-08T15:25:57.847Z,19.32
2019-03-08T15:28:28.319Z,18.42
2019-03-08T15:31:00.741Z,17.17
2019-03-08T15:33:31.521Z,20.15
2019-03-08T15:36:02.087Z,19.50
2019-03-08T15:38:35.580Z,21.27
2019-03-08T15:41:08.769Z,20.15
2019-03-08T15:43:39.498Z,21.55
2019-03-08T15:46:10.851Z,20.57
2019-03-08T15:48:41.358Z,18.65
2019-03-08T15:51:12.276Z,19.73
2019-03-08T15:53:43.800Z,19.37
2019-03-08T15:56:14.191Z,21.07
2019-03-08T15:58:48.232Z,20.57
2019-03-08T16:01:20.346Z,20.75
2019-03-08T16:03:51.368Z,20.37
2019-03-08T16:06:22.310Z,20.35
2019-03-08T16:08:52.686Z,21.00
2019-03-08T16:11:26.186Z,22.05
2019-03-08T16:13:56.325Z,21.65
2019-03-08T16:16:26.969Z,21.77
2019-03-08T16:18:57.208Z,20.80
2019-03-08T16:21:27.441Z,20.37
2019-03-08T16:23:57.218Z,22.32
2019-03-08T16:26:27.711Z,22.58
2019-03-08T16:28:58.633Z,24.30
2019-03-08T16:31:45.258Z,23.07
2019-03-08T16:34:17.855Z,22.95
2019-03-08T16:37:03.887Z,22.10
2019-03-08T16:39:47.099Z,20.27
2019-03-08T16:42:26.416Z,20.60
2019-03-08T16:45:23.296Z,22.20
2019-03-08T16:48:13.905Z,21.82
2019-03-08T16:51:18.582Z,20.12
2019-03-08T16:54:06.647Z,23.38
2019-03-08T16:57:08.265Z,22.67
2019-03-08T17:00:00.911Z,23.20
2019-03-08T17:02:43.516Z,23.40
2019-03-08T17:05:22.395Z,23.25
2019-03-08T17:08:11.854Z,21.60
2019-03-08T17:10:50.725Z,21.68
2019-03-08T17:13:57.667Z,22.65
2019-03-08T17:17:04.073Z,20.62
2019-03-08T17:19:43.378Z,22.97
2019-03-08T17:22:32.989Z,22.82
2019-03-08T17:25:25.460Z,21.48
2019-03-08T17:28:28.190Z,20.37
2019-03-08T17:31:21.674Z,22.77
2019-03-08T17:34:11.905Z,22.15
2019-03-08T17:36:56.655Z,22.48
2019-03-08T17:42:34.678Z,21.02
2019-03-08T17:45:21.471Z,22.15
2019-03-08T17:48:08.816Z,20.40
2019-03-08T17:50:57.028Z,21.75
2019-03-08T17:53:44.976Z,22.62
2019-03-08T17:56:33.093Z,21.30
2019-03-08T17:59:24.734Z,20.97
2019-03-08T18:02:23.626Z,20.43
2019-03-08T18:05:08.875Z,21.95
2019-03-08T18:08:04.663Z,23.95
2019-03-08T18:10:54.645Z,21.97
2019-03-08T18:13:34.179Z,24.82
2019-03-08T18:16:29.750Z,23.60
2019-03-08T18:19:21.315Z,21.12
2019-03-08T18:22:17.011Z,21.90
2019-03-08T18:24:53.897Z,21.50
2019-03-08T18:27:33.457Z,20.80
2019-03-08T18:30:28.653Z,21.42
2019-03-08T18:33:16.770Z,20.68
2019-03-08T18:35:55.964Z,22.75
2019-03-08T18:38:54.772Z,22.85
2019-03-08T18:41:47.494Z,22.15
2019-03-08T18:44:39.670Z,26.50
2019-03-08T18:47:20.246Z,21.65
2019-03-08T18:50:12.562Z,21.37
2019-03-08T18:53:03.079Z,22.95
2019-03-08T18:56:04.647Z,22.95
2019-03-08T18:58:52.412Z,22.87
2019-03-08T19:01:48.277Z,23.07
2019-03-08T19:04:50.432Z,22.75
2019-03-08T19:07:45.042Z,21.90
2019-03-08T19:10:28.174Z,21.65
2019-03-08T19:13:17.931Z,22.27
2019-03-08T19:16:00.619Z,20.17
2019-03-08T19:18:45.617Z,21.62
2019-03-08T19:21:44.413Z,20.23
2019-03-08T19:24:42.231Z,20.25
2019-03-08T19:27:31.749Z,20.97
2019-03-08T19:30:24.647Z,18.27
2019-03-08T19:33:22.973Z,18.80
2019-03-08T19:36:05.415Z,19.45
2019-03-08T19:38:58.432Z,20.12
2019-03-08T19:41:51.279Z,17.62
2019-03-08T19:44:43.736Z,20.02
2019-03-08T19:47:36.469Z,18.73
2019-03-08T19:50:32.784Z,19.80
2019-03-08T19:53:21.276Z,17.98
2019-03-08T19:56:09.069Z,18.62
2019-03-08T19:58:56.666Z,19.95
2019-03-08T20:02:01.449Z,20.52
2019-03-08T20:05:03.438Z,18.80
2019-03-08T20:07:57.207Z,18.52
2019-03-08T20:10:54.123Z,17.75
2019-03-08T20:13:32.638Z,17.05
2019-03-08T20:16:21.208Z,19.40
2019-03-08T20:19:19.845Z,22.17
2019-03-08T20:22:09.887Z,19.40
2019-03-08T20:24:57.859Z,22.35
2019-03-08T20:27:47.692Z,18.00
2019-03-08T20:30:44.292Z,17.48
2019-03-08T20:33:38.792Z,19.50
2019-03-08T20:36:31.460Z,18.17
2019-03-08T20:39:20.057Z,17.37
2019-03-08T20:42:08.874Z,17.95
2019-03-08T20:45:02.654Z,21.23
2019-03-08T20:47:33.518Z,17.42
2019-03-08T20:50:27.007Z,16.48
2019-03-08T20:53:02.493Z,19.80
2019-03-08T20:55:35.507Z,17.77
2019-03-08T20:58:06.072Z,17.85
2019-03-08T21:00:56.652Z,18.85
2019-03-08T21:03:26.674Z,18.50
2019-03-08T21:06:08.996Z,18.25
2019-03-08T21:08:38.528Z,18.60
2019-03-08T21:11:10.241Z,19.07
2019-03-08T21:13:40.763Z,17.57
2019-03-08T21:16:12.903Z,18.40
2019-03-08T21:18:44.917Z,23.32
2019-03-08T21:21:14.996Z,15.95
2019-03-08T21:23:44.950Z,22.70
2019-03-08T21:26:15.157Z,16.35
2019-03-08T21:28:45.335Z,17.40
2019-03-08T21:31:15.372Z,15.70
2019-03-08T21:33:45.404Z,17.85
2019-03-08T21:36:15.573Z,16.48
2019-03-08T21:38:46.496Z,17.15
2019-03-08T21:41:16.542Z,18.23
2019-03-08T21:43:49.462Z,17.32
2019-03-08T21:46:21.945Z,17.02
2019-03-08T21:48:52.358Z,17.50
2019-03-08T21:51:22.863Z,18.15
2019-03-08T21:53:53.194Z,18.82
2019-03-08T21:56:23.156Z,17.50
2019-03-08T21:58:53.643Z,17.37
2019-03-08T22:01:26.198Z,17.62
2019-03-08T22:04:01.333Z,18.50
2019-03-08T22:06:31.555Z,18.02
2019-03-08T22:09:21.771Z,16.17
2019-03-08T22:11:52.483Z,19.70
2019-03-08T22:14:22.413Z,19.35
2019-03-08T22:16:52.262Z,18.90
2019-03-08T22:19:22.594Z,19.02
2019-03-08T22:21:53.225Z,18.48
2019-03-08T22:24:23.173Z,19.80
2019-03-08T22:26:53.856Z,20.27
2019-03-08T22:29:23.986Z,15.50
2019-03-08T22:31:54.418Z,18.75
2019-03-08T22:34:24.469Z,18.73
2019-03-08T22:36:54.546Z,21.40
2019-03-08T22:39:24.519Z,19.65
2019-03-08T22:41:54.812Z,20.65
2019-03-08T22:44:24.947Z,20.60
2019-03-08T22:46:56.234Z,18.95
2019-03-08T22:49:26.254Z,20.30
2019-03-08T22:51:56.461Z,19.07
2019-03-08T22:54:27.669Z,20.15
2019-03-08T22:56:58.562Z,18.00
2019-03-08T22:59:29.193Z,20.45
2019-03-08T23:02:07.990Z,20.08
2019-03-08T23:04:38.848Z,18.90
2019-03-08T23:07:10.129Z,18.37
2019-03-08T23:09:40.637Z,21.73
2019-03-08T23:12:12.158Z,18.87
2019-03-08T23:14:44.041Z,15.03
2019-03-08T23:17:14.175Z,20.92
2019-03-08T23:19:44.354Z,19.73
2019-03-08T23:22:14.191Z,20.60
2019-03-08T23:24:44.247Z,20.80
2019-03-08T23:27:21.857Z,20.75
2019-03-08T23:30:00.636Z,20.82
2019-03-08T23:32:36.926Z,19.40
2019-03-08T23:35:07.071Z,21.02
2019-03-08T23:37:37.138Z,20.05
2019-03-08T23:40:07.166Z,11.33
2019-03-08T23:42:37.438Z,21.33
2019-03-08T23:45:07.452Z,20.88
2019-03-08T23:47:37.317Z,20.70
2019-03-08T23:50:07.376Z,21.07
2019-03-08T23:52:36.960Z,20.85
2019-03-08T23:55:07.479Z,20.68
2019-03-08T23:57:38.056Z,20.37
